createdAt,value
2018-03-25T00:00:37.218Z,977.54
2018-03-25T00:01:37.211Z,977.53
2018-03-25T00:02:37.204Z,977.53
2018-03-25T00:03:37.193Z,977.53
2018-03-25T00:04:37.183Z,977.56
2018-03-25T00:05:37.174Z,977.54
2018-03-25T00:06:37.168Z,977.54
2018-03-25T00:07:37.157Z,977.58
2018-03-25T00:08:37.147Z,977.56
2018-03-25T00:09:37.137Z,977.58
2018-03-25T00:10:37.141Z,977.61
2018-03-25T00:11:37.120Z,977.58
2018-03-25T00:12:37.112Z,977.52
2018-03-25T00:13:37.102Z,977.59
2018-03-25T00:14:37.097Z,977.55
2018-03-25T00:15:37.083Z,977.58
2018-03-25T00:16:37.104Z,977.61
2018-03-25T00:17:37.215Z,977.6
2018-03-25T00:18:37.061Z,977.66
2018-03-25T00:19:37.048Z,977.65
2018-03-25T00:20:37.041Z,977.73
2018-03-25T00:21:37.029Z,977.69
2018-03-25T00:22:37.021Z,977.68
2018-03-25T00:23:37.011Z,977.64
2018-03-25T00:24:37.015Z,977.7
2018-03-25T00:25:36.991Z,977.7
2018-03-25T00:26:36.982Z,977.68
2018-03-25T00:27:36.973Z,977.7
2018-03-25T00:28:36.964Z,977.74
2018-03-25T00:29:36.956Z,977.71
2018-03-25T00:30:36.948Z,977.68
2018-03-25T00:31:36.936Z,977.73
2018-03-25T00:32:36.927Z,977.76
2018-03-25T00:33:36.917Z,977.75
2018-03-25T00:34:36.910Z,977.76
2018-03-25T00:35:36.898Z,977.76
2018-03-25T00:36:36.889Z,977.76
2018-03-25T00:37:36.880Z,977.81
2018-03-25T00:38:36.870Z,977.77
2018-03-25T00:39:36.863Z,977.77
2018-03-25T00:40:36.851Z,977.77
2018-03-25T00:41:36.842Z,977.76
2018-03-25T00:42:36.832Z,977.79
2018-03-25T00:43:36.823Z,977.82
2018-03-25T00:44:36.830Z,977.81
2018-03-25T00:45:36.810Z,977.8
2018-03-25T00:46:36.800Z,977.79
2018-03-25T00:47:36.786Z,977.76
2018-03-25T00:48:36.780Z,977.79
2018-03-25T00:49:36.769Z,977.81
2018-03-25T00:50:36.769Z,977.79
2018-03-25T00:51:36.755Z,977.81
2018-03-25T00:52:36.738Z,977.82
2018-03-25T00:53:36.728Z,977.8
2018-03-25T00:54:36.719Z,977.82
2018-03-25T00:55:36.713Z,977.85
2018-03-25T00:56:36.701Z,977.86
2018-03-25T00:57:36.692Z,977.85
2018-03-25T00:58:36.681Z,977.84
2018-03-25T00:59:36.672Z,977.87
2018-03-25T01:00:36.669Z,977.88
2018-03-25T01:01:36.653Z,977.86
2018-03-25T01:02:36.642Z,977.85
2018-03-25T01:03:36.635Z,977.83
2018-03-25T01:04:36.623Z,977.86
2018-03-25T01:05:36.614Z,977.84
2018-03-25T01:06:36.613Z,977.86
2018-03-25T01:07:36.602Z,977.89
2018-03-25T01:08:36.588Z,977.85
2018-03-25T01:09:36.587Z,977.87
2018-03-25T01:10:36.568Z,977.86
2018-03-25T01:11:36.558Z,977.89
2018-03-25T01:12:36.551Z,977.86
2018-03-25T01:13:36.540Z,977.89
2018-03-25T01:14:36.540Z,977.86
2018-03-25T01:15:36.521Z,977.88
2018-03-25T01:16:36.517Z,977.86
2018-03-25T01:17:36.505Z,977.82
2018-03-25T01:18:36.495Z,977.82
2018-03-25T01:19:36.483Z,977.85
2018-03-25T01:20:36.473Z,977.86
2018-03-25T01:21:36.464Z,977.86
2018-03-25T01:22:36.454Z,977.89
2018-03-25T01:23:36.443Z,977.91
2018-03-25T01:24:36.436Z,977.92
2018-03-25T01:25:36.426Z,977.93
2018-03-25T01:26:36.415Z,977.93
2018-03-25T01:27:36.407Z,977.94
2018-03-25T01:28:36.396Z,977.93
2018-03-25T01:29:36.390Z,977.96
2018-03-25T01:30:36.383Z,977.94
2018-03-25T01:31:36.370Z,977.97
2018-03-25T01:32:36.412Z,977.92
2018-03-25T01:33:36.349Z,977.95
2018-03-25T01:34:36.338Z,977.96
2018-03-25T01:35:36.343Z,978
2018-03-25T01:36:36.327Z,977.94
2018-03-25T01:37:36.310Z,977.96
2018-03-25T01:38:36.300Z,977.95
2018-03-25T01:39:36.290Z,977.96
2018-03-25T01:40:36.280Z,977.96
2018-03-25T01:41:36.273Z,977.96
2018-03-25T01:42:36.263Z,977.99
2018-03-25T01:43:36.251Z,977.97
2018-03-25T01:44:36.241Z,977.97
2018-03-25T01:45:36.231Z,977.97
2018-03-25T01:46:36.222Z,977.96
2018-03-25T01:47:36.221Z,977.94
2018-03-25T01:48:36.201Z,977.95
2018-03-25T01:49:36.193Z,977.95
2018-03-25T01:50:36.187Z,977.91
2018-03-25T01:51:36.177Z,977.95
2018-03-25T01:52:36.166Z,977.96
2018-03-25T01:53:36.153Z,977.98
2018-03-25T01:54:36.143Z,977.98
2018-03-25T01:55:36.138Z,978
2018-03-25T01:56:36.123Z,977.95
2018-03-25T01:57:36.117Z,977.96
2018-03-25T01:58:36.104Z,977.98
2018-03-25T01:59:36.096Z,977.96
2018-03-25T02:00:36.087Z,977.95
2018-03-25T02:01:36.074Z,977.96
2018-03-25T02:02:36.065Z,977.97
2018-03-25T02:03:36.054Z,977.95
2018-03-25T02:04:36.044Z,977.96
2018-03-25T02:05:36.036Z,977.93
2018-03-25T02:06:36.027Z,977.95
2018-03-25T02:07:36.020Z,977.95
2018-03-25T02:08:36.005Z,977.95
2018-03-25T02:09:35.995Z,977.93
2018-03-25T02:10:35.985Z,977.93
2018-03-25T02:11:35.976Z,977.9
2018-03-25T02:12:35.969Z,977.88
2018-03-25T02:13:35.955Z,977.94
2018-03-25T02:14:35.948Z,977.93
2018-03-25T02:15:35.937Z,977.95
2018-03-25T02:16:35.926Z,977.92
2018-03-25T02:17:35.914Z,977.96
2018-03-25T02:18:38.006Z,977.95
2018-03-25T02:19:35.895Z,977.92
2018-03-25T02:20:35.886Z,977.94
2018-03-25T02:21:35.876Z,977.95
2018-03-25T02:22:35.866Z,977.89
2018-03-25T02:23:35.855Z,977.84
2018-03-25T02:24:35.845Z,977.85
2018-03-25T02:25:35.834Z,977.85
2018-03-25T02:26:35.830Z,977.82
2018-03-25T02:27:35.818Z,977.85
2018-03-25T02:28:35.810Z,977.87
2018-03-25T02:29:35.795Z,977.84
2018-03-25T02:30:35.787Z,977.89
2018-03-25T02:31:35.785Z,977.86
2018-03-25T02:32:35.777Z,977.91
2018-03-25T02:33:35.772Z,977.84
2018-03-25T02:34:35.747Z,977.88
2018-03-25T02:35:35.735Z,977.9
2018-03-25T02:36:35.725Z,977.91
2018-03-25T02:37:35.715Z,977.91
2018-03-25T02:38:35.714Z,977.92
2018-03-25T02:39:35.735Z,977.91
2018-03-25T02:40:35.690Z,977.92
2018-03-25T02:41:35.679Z,977.91
2018-03-25T02:42:35.665Z,977.93
2018-03-25T02:43:35.654Z,977.93
2018-03-25T02:44:35.644Z,977.96
2018-03-25T02:45:35.636Z,977.99
2018-03-25T02:46:35.624Z,977.98
2018-03-25T02:47:35.613Z,977.96
2018-03-25T02:48:35.604Z,977.99
2018-03-25T02:49:35.594Z,977.97
2018-03-25T02:50:35.585Z,978.01
2018-03-25T02:51:35.576Z,978.01
2018-03-25T02:52:35.565Z,978.03
2018-03-25T02:53:35.553Z,977.99
2018-03-25T02:54:35.548Z,977.98
2018-03-25T02:55:35.533Z,977.98
2018-03-25T02:56:35.523Z,978.01
2018-03-25T02:57:35.511Z,977.98
2018-03-25T02:58:35.502Z,978.02
2018-03-25T02:59:35.493Z,978
2018-03-25T03:00:35.484Z,978
2018-03-25T03:01:35.474Z,978.02
2018-03-25T03:02:35.605Z,977.97
2018-03-25T03:03:35.457Z,978.02
2018-03-25T03:04:35.446Z,978.06
2018-03-25T03:05:35.433Z,978.05
2018-03-25T03:06:35.424Z,978.03
2018-03-25T03:07:35.412Z,977.99
2018-03-25T03:08:35.399Z,978.04
2018-03-25T03:09:35.396Z,978.06
2018-03-25T03:10:35.379Z,978.03
2018-03-25T03:11:35.377Z,978.07
2018-03-25T03:12:35.359Z,978.07
2018-03-25T03:13:35.356Z,978.03
2018-03-25T03:14:35.338Z,978.04
2018-03-25T03:15:35.329Z,978.05
2018-03-25T03:16:35.319Z,978.04
2018-03-25T03:17:35.309Z,978.05
2018-03-25T03:18:35.355Z,978.04
2018-03-25T03:19:35.286Z,978.06
2018-03-25T03:20:35.278Z,978.05
2018-03-25T03:21:35.267Z,978.02
2018-03-25T03:22:35.257Z,978.08
2018-03-25T03:23:35.259Z,978.05
2018-03-25T03:24:35.242Z,978.05
2018-03-25T03:25:35.227Z,978.08
2018-03-25T03:26:35.218Z,978.08
2018-03-25T03:27:35.208Z,978.11
2018-03-25T03:28:35.195Z,978.07
2018-03-25T03:29:35.186Z,978.11
2018-03-25T03:30:35.197Z,978.1
2018-03-25T03:31:35.165Z,978.11
2018-03-25T03:32:35.154Z,978.16
2018-03-25T03:33:35.149Z,978.11
2018-03-25T03:34:35.133Z,978.14
2018-03-25T03:35:35.123Z,978.11
2018-03-25T03:36:35.112Z,978.16
2018-03-25T03:37:35.103Z,978.12
2018-03-25T03:38:35.092Z,978.15
2018-03-25T03:39:35.081Z,978.11
2018-03-25T03:40:35.077Z,978.17
2018-03-25T03:41:35.061Z,978.13
2018-03-25T03:42:35.054Z,978.18
2018-03-25T03:43:35.040Z,978.19
2018-03-25T03:44:35.048Z,978.18
2018-03-25T03:45:35.018Z,978.18
2018-03-25T03:46:35.010Z,978.18
2018-03-25T03:47:35.003Z,978.17
2018-03-25T03:48:34.989Z,978.19
2018-03-25T03:49:35.430Z,978.16
2018-03-25T03:50:34.969Z,978.16
2018-03-25T03:51:34.958Z,978.15
2018-03-25T03:52:34.952Z,978.15
2018-03-25T03:53:34.940Z,978.18
2018-03-25T03:54:34.926Z,978.16
2018-03-25T03:55:34.916Z,978.14
2018-03-25T03:56:34.907Z,978.17
2018-03-25T03:57:34.904Z,978.18
2018-03-25T03:58:34.886Z,978.1
2018-03-25T03:59:34.874Z,978.13
2018-03-25T04:00:34.863Z,978.15
2018-03-25T04:01:34.854Z,978.14
2018-03-25T04:02:34.851Z,978.18
2018-03-25T04:03:34.833Z,978.16
2018-03-25T04:04:34.823Z,978.16
2018-03-25T04:05:34.813Z,978.14
2018-03-25T04:06:34.803Z,978.16
2018-03-25T04:07:34.800Z,978.19
2018-03-25T04:08:34.780Z,978.2
2018-03-25T04:09:34.771Z,978.22
2018-03-25T04:10:34.773Z,978.19
2018-03-25T04:11:34.756Z,978.2
2018-03-25T04:12:34.747Z,978.24
2018-03-25T04:13:34.729Z,978.23
2018-03-25T04:14:34.725Z,978.29
2018-03-25T04:15:34.708Z,978.29
2018-03-25T04:16:34.697Z,978.28
2018-03-25T04:17:34.698Z,978.32
2018-03-25T04:18:34.679Z,978.33
2018-03-25T04:19:34.666Z,978.32
2018-03-25T04:20:34.656Z,978.32
2018-03-25T04:21:34.649Z,978.35
2018-03-25T04:22:34.698Z,978.33
2018-03-25T04:23:34.639Z,978.38
2018-03-25T04:24:34.615Z,978.35
2018-03-25T04:25:34.609Z,978.35
2018-03-25T04:26:34.593Z,978.32
2018-03-25T04:27:34.593Z,978.34
2018-03-25T04:28:34.589Z,978.35
2018-03-25T04:29:34.562Z,978.36
2018-03-25T04:30:34.551Z,978.36
2018-03-25T04:31:34.549Z,978.38
2018-03-25T04:32:34.538Z,978.35
2018-03-25T04:33:34.528Z,978.36
2018-03-25T04:34:34.512Z,978.43
2018-03-25T04:35:34.499Z,978.42
2018-03-25T04:36:34.487Z,978.43
2018-03-25T04:37:34.495Z,978.45
2018-03-25T04:38:34.471Z,978.43
2018-03-25T04:39:34.463Z,978.44
2018-03-25T04:40:34.446Z,978.46
2018-03-25T04:41:34.436Z,978.47
2018-03-25T04:42:34.441Z,978.44
2018-03-25T04:43:34.423Z,978.48
2018-03-25T04:44:34.410Z,978.49
2018-03-25T04:45:34.398Z,978.52
2018-03-25T04:46:34.383Z,978.56
2018-03-25T04:47:34.376Z,978.52
2018-03-25T04:48:34.364Z,978.54
2018-03-25T04:49:34.351Z,978.57
2018-03-25T04:50:34.342Z,978.51
2018-03-25T04:51:34.404Z,978.56
2018-03-25T04:52:34.342Z,978.53
2018-03-25T04:53:34.311Z,978.55
2018-03-25T04:54:34.299Z,978.59
2018-03-25T04:55:34.291Z,978.55
2018-03-25T04:56:34.278Z,978.55
2018-03-25T04:57:34.289Z,978.56
2018-03-25T04:58:34.256Z,978.56
2018-03-25T04:59:34.245Z,978.59
2018-03-25T05:00:34.239Z,978.6
2018-03-25T05:01:34.225Z,978.64
2018-03-25T05:02:34.220Z,978.63
2018-03-25T05:03:34.205Z,978.66
2018-03-25T05:04:34.196Z,978.66
2018-03-25T05:05:34.187Z,978.63
2018-03-25T05:06:34.173Z,978.61
2018-03-25T05:07:34.178Z,978.63
2018-03-25T05:08:34.151Z,978.69
2018-03-25T05:09:34.144Z,978.64
2018-03-25T05:10:34.139Z,978.63
2018-03-25T05:11:34.122Z,978.63
2018-03-25T05:12:34.125Z,978.62
2018-03-25T05:13:34.111Z,978.62
2018-03-25T05:14:34.091Z,978.65
2018-03-25T05:15:34.079Z,978.66
2018-03-25T05:16:34.069Z,978.7
2018-03-25T05:17:34.134Z,978.7
2018-03-25T05:18:34.051Z,978.72
2018-03-25T05:19:34.040Z,978.7
2018-03-25T05:20:34.027Z,978.69
2018-03-25T05:21:34.017Z,978.73
2018-03-25T05:22:34.010Z,978.73
2018-03-25T05:23:33.997Z,978.71
2018-03-25T05:24:33.992Z,978.72
2018-03-25T05:25:33.976Z,978.76
2018-03-25T05:26:33.967Z,978.73
2018-03-25T05:27:33.958Z,978.75
2018-03-25T05:28:33.947Z,978.76
2018-03-25T05:29:33.934Z,978.74
2018-03-25T05:30:33.923Z,978.79
2018-03-25T05:31:33.912Z,978.75
2018-03-25T05:32:33.907Z,978.78
2018-03-25T05:33:33.893Z,978.77
2018-03-25T05:34:33.885Z,978.74
2018-03-25T05:35:33.872Z,978.76
2018-03-25T05:36:33.863Z,978.72
2018-03-25T05:37:33.855Z,978.72
2018-03-25T05:38:33.843Z,978.73
2018-03-25T05:39:33.832Z,978.71
2018-03-25T05:40:33.859Z,978.8
2018-03-25T05:41:33.812Z,978.76
2018-03-25T05:42:33.800Z,978.81
2018-03-25T05:43:33.792Z,978.82
2018-03-25T05:44:33.796Z,978.84
2018-03-25T05:45:33.773Z,978.85
2018-03-25T05:46:33.771Z,978.85
2018-03-25T05:47:33.751Z,978.86
2018-03-25T05:48:33.745Z,978.88
2018-03-25T05:49:33.736Z,978.86
2018-03-25T05:50:33.724Z,978.87
2018-03-25T05:51:33.711Z,978.87
2018-03-25T05:52:33.702Z,978.9
2018-03-25T05:53:33.689Z,978.88
2018-03-25T05:54:33.689Z,978.91
2018-03-25T05:55:33.678Z,978.93
2018-03-25T05:56:33.663Z,978.95
2018-03-25T05:57:33.660Z,978.94
2018-03-25T05:58:33.643Z,978.92
2018-03-25T05:59:33.634Z,978.99
2018-03-25T06:00:33.622Z,978.97
2018-03-25T06:01:33.613Z,979.04
2018-03-25T06:02:33.606Z,979.05
2018-03-25T06:03:33.595Z,979.05
2018-03-25T06:04:33.584Z,979.06
2018-03-25T06:05:33.578Z,979.1
2018-03-25T06:06:33.766Z,979.13
2018-03-25T06:07:33.555Z,979.12
2018-03-25T06:08:33.546Z,979.18
2018-03-25T06:09:33.537Z,979.13
2018-03-25T06:10:33.528Z,979.14
2018-03-25T06:11:33.529Z,979.18
2018-03-25T06:12:33.527Z,979.2
2018-03-25T06:13:33.501Z,979.2
2018-03-25T06:14:33.491Z,979.28
2018-03-25T06:15:33.481Z,979.3
2018-03-25T06:16:33.471Z,979.32
2018-03-25T06:17:33.466Z,979.25
2018-03-25T06:18:33.467Z,979.22
2018-03-25T06:27:16.675Z,979.41
2018-03-25T06:28:16.410Z,979.41
2018-03-25T06:29:16.397Z,979.4
2018-03-25T06:30:16.381Z,979.37
2018-03-25T06:31:16.429Z,979.38
2018-03-25T06:32:16.359Z,979.4
2018-03-25T06:33:16.349Z,979.43
2018-03-25T06:34:16.339Z,979.41
2018-03-25T06:35:16.331Z,979.44
2018-03-25T06:36:16.318Z,979.43
2018-03-25T06:37:16.308Z,979.47
2018-03-25T06:38:16.312Z,979.47
2018-03-25T06:39:16.288Z,979.45
2018-03-25T06:40:16.281Z,979.48
2018-03-25T06:41:16.271Z,979.43
2018-03-25T06:42:16.261Z,979.46
2018-03-25T06:43:16.251Z,979.47
2018-03-25T06:44:16.243Z,979.49
2018-03-25T06:45:16.234Z,979.49
2018-03-25T06:46:16.228Z,979.5
2018-03-25T06:47:16.215Z,979.48
2018-03-25T06:48:16.232Z,979.52
2018-03-25T06:49:16.197Z,979.49
2018-03-25T06:50:16.324Z,979.54
2018-03-25T06:51:16.180Z,979.59
2018-03-25T06:52:16.170Z,979.58
2018-03-25T06:53:16.164Z,979.58
2018-03-25T06:54:16.190Z,979.58
2018-03-25T06:55:16.279Z,979.54
2018-03-25T06:56:16.137Z,979.59
2018-03-25T06:57:16.130Z,979.6
2018-03-25T06:58:16.129Z,979.6
2018-03-25T06:59:16.116Z,979.57
2018-03-25T07:00:16.110Z,979.62
2018-03-25T07:01:16.103Z,979.62
2018-03-25T07:02:16.096Z,979.61
2018-03-25T07:03:16.104Z,979.65
2018-03-25T07:04:16.084Z,979.66
2018-03-25T07:05:16.184Z,979.64
2018-03-25T07:06:16.075Z,979.65
2018-03-25T07:07:16.068Z,979.71
2018-03-25T07:08:16.063Z,979.73
2018-03-25T07:09:16.055Z,979.77
2018-03-25T07:10:16.544Z,979.77
2018-03-25T07:11:16.044Z,979.76
2018-03-25T07:12:16.040Z,979.79
2018-03-25T07:13:16.040Z,979.79
2018-03-25T07:14:16.027Z,979.8
2018-03-25T07:15:16.065Z,979.83
2018-03-25T07:16:16.019Z,979.85
2018-03-25T07:17:16.021Z,979.86
2018-03-25T07:18:16.020Z,979.87
2018-03-25T07:19:16.004Z,979.89
2018-03-25T07:20:15.999Z,979.88
2018-03-25T07:21:15.995Z,979.86
2018-03-25T07:22:15.994Z,979.84
2018-03-25T07:23:16.005Z,979.83
2018-03-25T07:24:15.992Z,979.84
2018-03-25T07:25:15.983Z,979.82
2018-03-25T07:26:15.982Z,979.83
2018-03-25T07:27:15.980Z,979.8
2018-03-25T07:28:15.976Z,979.87
2018-03-25T07:29:15.974Z,979.81
2018-03-25T07:30:15.971Z,979.84
2018-03-25T07:31:15.974Z,979.87
2018-03-25T07:32:15.970Z,979.84
2018-03-25T07:33:15.969Z,979.85
2018-03-25T07:34:15.967Z,979.85
2018-03-25T07:35:16.154Z,979.87
2018-03-25T07:36:15.972Z,979.87
2018-03-25T07:37:15.971Z,979.91
2018-03-25T07:38:15.966Z,979.89
2018-03-25T07:39:15.963Z,979.91
2018-03-25T07:40:16.129Z,979.95
2018-03-25T07:41:15.964Z,979.95
2018-03-25T07:42:15.965Z,979.97
2018-03-25T07:43:15.966Z,979.98
2018-03-25T07:44:15.969Z,979.99
2018-03-25T07:45:16.010Z,980
2018-03-25T07:46:15.966Z,980.02
2018-03-25T07:47:15.966Z,979.98
2018-03-25T07:48:15.968Z,979.96
2018-03-25T07:49:15.967Z,979.98
2018-03-25T07:50:16.071Z,979.96
2018-03-25T07:51:15.968Z,979.98
2018-03-25T07:52:15.973Z,979.99
2018-03-25T07:53:15.971Z,980
2018-03-25T07:54:15.979Z,979.99
2018-03-25T07:55:15.975Z,980.02
2018-03-25T07:56:15.980Z,980.01
2018-03-25T07:57:15.973Z,980.01
2018-03-25T07:58:16.273Z,980.02
2018-03-25T07:59:15.974Z,980.03
2018-03-25T08:00:15.976Z,980.02
2018-03-25T08:01:15.977Z,980.05
2018-03-25T08:02:15.978Z,980.01
2018-03-25T08:03:15.983Z,980.04
2018-03-25T08:04:15.981Z,980.02
2018-03-25T08:05:15.981Z,980.02
2018-03-25T08:06:15.982Z,979.99
2018-03-25T08:07:15.984Z,980.02
2018-03-25T08:08:15.985Z,980.07
2018-03-25T08:09:16.009Z,980.05
2018-03-25T08:10:15.989Z,980.04
2018-03-25T08:11:15.990Z,980.02
2018-03-25T08:12:15.990Z,980.04
2018-03-25T08:13:16.041Z,980.03
2018-03-25T08:14:15.997Z,980.02
2018-03-25T08:15:15.997Z,980.05
2018-03-25T08:16:15.998Z,980.05
2018-03-25T08:17:16.000Z,980
2018-03-25T08:18:16.803Z,980.04
2018-03-25T08:19:16.003Z,980.04
2018-03-25T08:20:16.005Z,980.02
2018-03-25T08:21:16.006Z,980.07
2018-03-25T08:22:16.010Z,980.08
2018-03-25T08:23:16.010Z,980.05
2018-03-25T08:24:16.012Z,980.06
2018-03-25T08:25:16.015Z,980.1
2018-03-25T08:26:16.040Z,980.08
2018-03-25T08:27:16.023Z,980.12
2018-03-25T08:28:16.020Z,980.11
2018-03-25T08:29:16.029Z,980.09
2018-03-25T08:30:16.025Z,980.12
2018-03-25T08:31:16.026Z,980.12
2018-03-25T08:32:16.029Z,980.13
2018-03-25T08:33:16.033Z,980.14
2018-03-25T08:34:16.034Z,980.13
2018-03-25T08:35:16.034Z,980.11
2018-03-25T08:36:16.036Z,980.12
2018-03-25T08:37:16.037Z,980.12
2018-03-25T08:38:16.038Z,980.12
2018-03-25T08:39:16.038Z,980.14
2018-03-25T08:40:16.073Z,980.12
2018-03-25T08:41:16.040Z,980.17
2018-03-25T08:42:16.040Z,980.15
2018-03-25T08:43:16.039Z,980.16
2018-03-25T08:44:16.038Z,980.17
2018-03-25T08:45:16.041Z,980.15
2018-03-25T08:46:16.054Z,980.13
2018-03-25T08:47:16.034Z,980.19
2018-03-25T08:48:16.034Z,980.21
2018-03-25T08:49:16.032Z,980.17
2018-03-25T08:50:16.167Z,980.18
2018-03-25T08:51:16.030Z,980.23
2018-03-25T08:52:16.030Z,980.21
2018-03-25T08:53:16.025Z,980.22
2018-03-25T08:54:16.026Z,980.24
2018-03-25T08:55:16.257Z,980.23
2018-03-25T08:56:16.021Z,980.21
2018-03-25T08:57:16.016Z,980.22
2018-03-25T08:58:16.021Z,980.19
2018-03-25T08:59:16.014Z,980.22
2018-03-25T09:00:16.010Z,980.22
2018-03-25T09:01:16.006Z,980.21
2018-03-25T09:02:16.010Z,980.24
2018-03-25T09:03:16.002Z,980.19
2018-03-25T09:04:16.000Z,980.2
2018-03-25T09:05:15.996Z,980.15
2018-03-25T09:06:15.993Z,980.14
2018-03-25T09:07:15.990Z,980.18
2018-03-25T09:08:15.989Z,980.18
2018-03-25T09:09:15.990Z,980.16
2018-03-25T09:10:16.062Z,980.14
2018-03-25T09:11:15.979Z,980.15
2018-03-25T09:12:15.981Z,980.2
2018-03-25T09:13:15.978Z,980.16
2018-03-25T09:14:15.971Z,980.15
2018-03-25T09:15:16.011Z,980.2
2018-03-25T09:16:15.991Z,980.2
2018-03-25T09:17:15.969Z,980.18
2018-03-25T09:18:15.959Z,980.22
2018-03-25T09:19:15.960Z,980.19
2018-03-25T09:20:16.151Z,980.18
2018-03-25T09:21:15.963Z,980.22
2018-03-25T09:22:15.968Z,980.22
2018-03-25T09:23:15.951Z,980.18
2018-03-25T09:24:15.946Z,980.2
2018-03-25T09:25:15.941Z,980.24
2018-03-25T09:26:15.941Z,980.2
2018-03-25T09:27:15.938Z,980.23
2018-03-25T09:28:15.934Z,980.22
2018-03-25T09:29:15.930Z,980.24
2018-03-25T09:30:15.952Z,980.21
2018-03-25T09:31:15.926Z,980.24
2018-03-25T09:32:15.923Z,980.25
2018-03-25T09:33:15.925Z,980.23
2018-03-25T09:34:15.919Z,980.27
2018-03-25T09:35:15.988Z,980.33
2018-03-25T09:36:15.913Z,980.32
2018-03-25T09:37:15.928Z,980.31
2018-03-25T09:38:15.908Z,980.3
2018-03-25T09:39:15.907Z,980.31
2018-03-25T09:40:15.976Z,980.3
2018-03-25T09:41:15.901Z,980.35
2018-03-25T09:42:15.906Z,980.32
2018-03-25T09:43:15.897Z,980.37
2018-03-25T09:44:15.894Z,980.33
2018-03-25T09:45:15.890Z,980.28
2018-03-25T09:46:15.889Z,980.33
2018-03-25T09:47:15.893Z,980.37
2018-03-25T09:48:15.884Z,980.37
2018-03-25T09:49:15.879Z,980.36
2018-03-25T09:50:15.876Z,980.37
2018-03-25T09:51:15.874Z,980.36
2018-03-25T09:52:15.871Z,980.4
2018-03-25T09:53:15.868Z,980.41
2018-03-25T09:54:15.866Z,980.38
2018-03-25T09:55:15.864Z,980.38
2018-03-25T09:56:15.861Z,980.4
2018-03-25T09:57:15.868Z,980.35
2018-03-25T09:58:15.856Z,980.4
2018-03-25T09:59:21.363Z,980.41
2018-03-25T10:00:15.852Z,980.39
2018-03-25T10:01:15.890Z,980.41
2018-03-25T10:02:15.842Z,980.39
2018-03-25T10:03:15.843Z,980.38
2018-03-25T10:04:15.842Z,980.41
2018-03-25T10:05:15.947Z,980.41
2018-03-25T10:06:15.834Z,980.43
2018-03-25T10:07:15.829Z,980.42
2018-03-25T10:08:15.827Z,980.4
2018-03-25T10:09:15.829Z,980.42
2018-03-25T10:10:15.821Z,980.43
2018-03-25T10:11:15.822Z,980.4
2018-03-25T10:12:15.816Z,980.43
2018-03-25T10:13:15.815Z,980.42
2018-03-25T10:14:15.810Z,980.42
2018-03-25T10:15:16.095Z,980.39
2018-03-25T10:16:15.806Z,980.44
2018-03-25T10:17:15.807Z,980.43
2018-03-25T10:18:15.805Z,980.43
2018-03-25T10:19:15.941Z,980.41
2018-03-25T10:20:15.869Z,980.44
2018-03-25T10:21:15.794Z,980.45
2018-03-25T10:22:15.798Z,980.43
2018-03-25T10:23:15.791Z,980.44
2018-03-25T10:24:15.790Z,980.43
2018-03-25T10:25:15.877Z,980.37
2018-03-25T10:26:15.782Z,980.48
2018-03-25T10:57:02.560Z,980.3
2018-03-25T10:58:02.568Z,980.3
2018-03-25T10:59:02.542Z,980.23
2018-03-25T11:00:02.534Z,980.29
2018-03-25T11:01:02.528Z,980.29
2018-03-25T11:02:02.593Z,980.26
2018-03-25T11:03:02.545Z,980.27
2018-03-25T11:04:02.509Z,980.28
2018-03-25T11:05:02.506Z,980.24
2018-03-25T11:06:02.500Z,980.27
2018-03-25T11:07:02.499Z,980.29
2018-03-25T11:08:02.498Z,980.26
2018-03-25T11:09:02.487Z,980.29
2018-03-25T11:10:02.487Z,980.28
2018-03-25T11:11:02.481Z,980.21
2018-03-25T11:12:04.930Z,980.23
2018-03-25T11:13:02.473Z,980.23
2018-03-25T11:14:02.472Z,980.22
2018-03-25T11:15:02.471Z,980.26
2018-03-25T11:16:02.470Z,980.24
2018-03-25T11:17:02.466Z,980.22
2018-03-25T11:18:02.459Z,980.21
2018-03-25T11:19:02.458Z,980.2
2018-03-25T11:20:02.457Z,980.19
2018-03-25T11:21:02.454Z,980.17
2018-03-25T11:22:02.451Z,980.17
2018-03-25T11:23:02.448Z,980.16
2018-03-25T11:24:02.449Z,980.17
2018-03-25T11:25:02.445Z,980.13
2018-03-25T11:26:02.441Z,980.19
2018-03-25T11:27:02.451Z,980.18
2018-03-25T11:28:02.440Z,980.21
2018-03-25T11:29:02.437Z,980.21
2018-03-25T11:30:02.438Z,980.17
2018-03-25T11:31:02.437Z,980.13
2018-03-25T11:32:02.430Z,980.2
2018-03-25T11:33:02.428Z,980.14
2018-03-25T11:34:02.431Z,980.16
2018-03-25T11:35:02.429Z,980.15
2018-03-25T11:36:02.427Z,980.17
2018-03-25T11:37:02.421Z,980.13
2018-03-25T11:38:02.422Z,980.14
2018-03-25T11:39:02.421Z,980.2
2018-03-25T11:40:02.417Z,980.16
2018-03-25T11:41:02.415Z,980.17
2018-03-25T11:42:02.488Z,980.19
2018-03-25T11:43:02.418Z,980.23
2018-03-25T11:44:02.417Z,980.23
2018-03-25T11:45:02.425Z,980.2
2018-03-25T11:46:02.422Z,980.21
2018-03-25T11:47:02.407Z,980.18
2018-03-25T11:48:02.406Z,980.16
2018-03-25T11:49:02.403Z,980.2
2018-03-25T11:50:02.402Z,980.22
2018-03-25T11:51:02.411Z,980.19
2018-03-25T11:52:02.399Z,980.17
2018-03-25T11:53:02.399Z,980.19
2018-03-25T11:54:02.397Z,980.21
2018-03-25T11:55:02.393Z,980.18
2018-03-25T11:56:02.395Z,980.19
2018-03-25T11:57:02.392Z,980.22
2018-03-25T11:58:02.391Z,980.21
2018-03-25T11:59:02.388Z,980.22
2018-03-25T12:00:02.387Z,980.24
2018-03-25T12:01:02.391Z,980.26
2018-03-25T12:02:02.388Z,980.23
2018-03-25T12:03:02.384Z,980.24
2018-03-25T12:04:02.382Z,980.26
2018-03-25T12:05:02.384Z,980.28
2018-03-25T12:06:02.385Z,980.23
2018-03-25T12:07:02.377Z,980.25
2018-03-25T12:08:02.382Z,980.23
2018-03-25T12:09:02.375Z,980.24
2018-03-25T12:10:02.373Z,980.24
2018-03-25T12:11:02.386Z,980.14
2018-03-25T12:12:02.374Z,980.15
2018-03-25T12:13:02.375Z,980.18
2018-03-25T12:14:02.376Z,980.16
2018-03-25T12:15:02.379Z,980.18
2018-03-25T12:16:02.377Z,980.15
2018-03-25T12:17:02.383Z,980.11
2018-03-25T12:18:02.363Z,980.17
2018-03-25T12:19:02.362Z,980.17
2018-03-25T12:20:02.365Z,980.11
2018-03-25T12:21:02.360Z,980.14
2018-03-25T12:22:02.362Z,980.2
2018-03-25T12:23:02.358Z,980.2
2018-03-25T12:24:02.355Z,980.18
2018-03-25T12:25:02.371Z,980.21
2018-03-25T12:26:02.409Z,980.19
2018-03-25T12:27:02.382Z,980.22
2018-03-25T12:28:02.902Z,980.22
2018-03-25T12:29:02.350Z,980.23
2018-03-25T12:30:02.347Z,980.26
2018-03-25T12:31:02.347Z,980.25
2018-03-25T12:32:02.348Z,980.24
2018-03-25T12:33:02.345Z,980.27
2018-03-25T12:34:02.347Z,980.22
2018-03-25T12:35:02.342Z,980.24
2018-03-25T12:36:02.343Z,980.23
2018-03-25T12:37:02.341Z,980.23
2018-03-25T12:38:02.340Z,980.2
2018-03-25T12:39:02.342Z,980.24
2018-03-25T12:40:02.337Z,980.2
2018-03-25T12:41:02.336Z,980.19
2018-03-25T12:42:02.335Z,980.2
2018-03-25T12:43:02.336Z,980.19
2018-03-25T12:44:02.342Z,980.21
2018-03-25T12:45:02.331Z,980.2
2018-03-25T12:46:02.328Z,980.22
2018-03-25T12:47:02.327Z,980.24
2018-03-25T12:48:02.328Z,980.17
2018-03-25T12:49:02.326Z,980.19
2018-03-25T12:50:02.324Z,980.17
2018-03-25T12:51:02.322Z,980.11
2018-03-25T12:52:02.321Z,980.15
2018-03-25T12:53:02.318Z,980.16
2018-03-25T12:54:02.319Z,980.12
2018-03-25T12:55:02.330Z,980.12
2018-03-25T12:56:02.317Z,980.14
2018-03-25T12:57:02.315Z,980.14
2018-03-25T12:58:02.314Z,980.19
2018-03-25T12:59:02.310Z,980.17
2018-03-25T13:00:02.312Z,980.16
2018-03-25T13:01:02.309Z,980.18
2018-03-25T13:02:02.306Z,980.17
2018-03-25T13:03:02.305Z,980.18
2018-03-25T13:04:02.308Z,980.19
2018-03-25T13:05:02.305Z,980.2
2018-03-25T13:06:02.302Z,980.21
2018-03-25T13:07:02.300Z,980.2
2018-03-25T13:08:02.298Z,980.24